CA-0429 weather

CLOSED Stevensville Airstrip
Stevensville, Ontario, Canada

Public forecast

Using degrees Celsius for public forecast. Weather courtesy of forecast.io.

Closest aviation weather report (METAR) to Stevensville Airstrip

Closest report is Niagara Falls International Airport, 12.1 nm (22.4 km) NNE. Retrieved 2019/10/15 16:53 UTC (31 minutes ago):

KIAG 151653Z 19009G18KT 10SM CLR 13/04 A3007 RMK AO2 SLP189 T01330039

Closest aviation forecast (TAF) to Stevensville Airstrip

Closest forecast is Niagara Falls International Airport, 12.1 nm (22.4 km) NNE. Retrieved 2019/10/15 12:22 UTC (5 hours ago):

TAF KIAG 151120Z 1512/1612 22004KT P6SM FEW250 FM151900 18008KT P6SM FEW200 FM160000 09006KT P6SM SCT250 FM160200 12007KT P6SM SCT150 FM160300 14008KT P6SM BKN100 FM160900 17013G23KT 4SM -SHRA OVC035